SWA1381 KCLT-KBNA
Flight info
| Callsign | SWA1381 |
|---|---|
| Flight time | 0h 56m |
| Altitude | 32000 |
| Route | BOBZY5 BOBZY BRAYN REWET EDDDY SWFFT3 |
| Aircraft | B739/M-SDE2E3FGHIRWXY/LB1 |
Departure
| Time | 2026-05-04 02:38 |
|---|---|
| Airport | Charlotte Douglas International Airport (KCLT) |
Arrival
| Time | 2026-05-04 03:35 |
|---|---|
| Airport | Nashville International Airport (KBNA) |
| Time | Latitude | Longitude | Altitude | Speed | Heading |
|---|---|---|---|---|---|
| 2026-05-04 02:30 | 35.21800 | -80.94599 | 718 ft | 0 kts | 96° |
| 2026-05-04 02:31 | 35.21801 | -80.94615 | 722 ft | 4 kts | 88° |
| 2026-05-04 02:32 | 35.21800 | -80.94647 | 720 ft | 4 kts | 86° |
| 2026-05-04 02:32 | 35.21800 | -80.94680 | 719 ft | 4 kts | 95° |
| 2026-05-04 02:32 | 35.21804 | -80.94712 | 720 ft | 4 kts | 111° |
| 2026-05-04 02:32 | 35.21818 | -80.94738 | 719 ft | 4 kts | 149° |
| 2026-05-04 02:33 | 35.21829 | -80.94744 | 721 ft | 0 kts | 176° |
| 2026-05-04 02:36 | 35.21817 | -80.94745 | 720 ft | 6 kts | 192° |
| 2026-05-04 02:36 | 35.21819 | -80.94815 | 721 ft | 15 kts | 298° |
| 2026-05-04 02:36 | 35.21867 | -80.94966 | 718 ft | 19 kts | 273° |
| 2026-05-04 02:36 | 35.21939 | -80.95049 | 716 ft | 20 kts | 355° |
| 2026-05-04 02:37 | 35.22120 | -80.95065 | 717 ft | 32 kts | 356° |
| 2026-05-04 02:37 | 35.22340 | -80.95080 | 715 ft | 31 kts | 356° |
| 2026-05-04 02:37 | 35.22561 | -80.95100 | 711 ft | 22 kts | 356° |
| 2026-05-04 02:37 | 35.22652 | -80.95171 | 699 ft | 18 kts | 275° |
| 2026-05-04 02:38 | 35.22609 | -80.95302 | 704 ft | 15 kts | 201° |
| 2026-05-04 02:38 | 35.22322 | -80.95281 | 714 ft | 86 kts | 176° |
| 2026-05-04 02:38 | 35.21436 | -80.95201 | 737 ft | 163 kts | 176° |
| 2026-05-04 02:38 | 35.20265 | -80.95116 | 1639 ft | 164 kts | 178° |
| 2026-05-04 02:39 | 35.19213 | -80.94933 | 3008 ft | 145 kts | 170° |
| 2026-05-04 02:39 | 35.18183 | -80.94460 | 3565 ft | 179 kts | 167° |
| 2026-05-04 02:39 | 35.16871 | -80.94428 | 3863 ft | 204 kts | 203° |
| 2026-05-04 02:39 | 35.15791 | -80.95637 | 4167 ft | 225 kts | 245° |
| 2026-05-04 02:40 | 35.15665 | -80.97545 | 4802 ft | 234 kts | 285° |
| 2026-05-04 02:40 | 35.16419 | -80.99303 | 5539 ft | 236 kts | 295° |
| 2026-05-04 02:40 | 35.16992 | -81.01200 | 6257 ft | 239 kts | 286° |
| 2026-05-04 02:40 | 35.17506 | -81.03218 | 6720 ft | 258 kts | 288° |
| 2026-05-04 02:41 | 35.18077 | -81.05333 | 7524 ft | 264 kts | 289° |
| 2026-05-04 02:41 | 35.18656 | -81.07456 | 8653 ft | 263 kts | 290° |
| 2026-05-04 02:41 | 35.19235 | -81.09585 | 9732 ft | 265 kts | 290° |
| 2026-05-04 02:41 | 35.19823 | -81.11751 | 10545 ft | 276 kts | 290° |
| 2026-05-04 02:42 | 35.20461 | -81.14100 | 10790 ft | 306 kts | 290° |
| 2026-05-04 02:42 | 35.21159 | -81.16681 | 10997 ft | 333 kts | 290° |
| 2026-05-04 02:42 | 35.21909 | -81.19466 | 11179 ft | 357 kts | 289° |
| 2026-05-04 02:42 | 35.22701 | -81.22423 | 11524 ft | 372 kts | 289° |
| 2026-05-04 02:43 | 35.23509 | -81.25453 | 12142 ft | 377 kts | 289° |
| 2026-05-04 02:43 | 35.24324 | -81.28515 | 12897 ft | 379 kts | 289° |
| 2026-05-04 02:43 | 35.25143 | -81.31596 | 13620 ft | 383 kts | 288° |
| 2026-05-04 02:43 | 35.25970 | -81.34712 | 14305 ft | 387 kts | 288° |
| 2026-05-04 02:44 | 35.26804 | -81.37855 | 14996 ft | 390 kts | 288° |
| 2026-05-04 02:44 | 35.27643 | -81.41016 | 15715 ft | 392 kts | 288° |
| 2026-05-04 02:44 | 35.28487 | -81.44202 | 16433 ft | 395 kts | 288° |
| 2026-05-04 02:44 | 35.29338 | -81.47418 | 17127 ft | 398 kts | 288° |
| 2026-05-04 02:45 | 35.30194 | -81.50656 | 17780 ft | 402 kts | 288° |
| 2026-05-04 02:45 | 35.31058 | -81.53928 | 18405 ft | 405 kts | 288° |
| 2026-05-04 02:45 | 35.31927 | -81.57224 | 19011 ft | 408 kts | 288° |
| 2026-05-04 02:45 | 35.32801 | -81.60540 | 19602 ft | 410 kts | 287° |
| 2026-05-04 02:46 | 35.33678 | -81.63874 | 20188 ft | 412 kts | 287° |
| 2026-05-04 02:46 | 35.34557 | -81.67223 | 20732 ft | 415 kts | 287° |
| 2026-05-04 02:46 | 35.35444 | -81.70602 | 21226 ft | 418 kts | 287° |
| 2026-05-04 02:46 | 35.36335 | -81.74002 | 21734 ft | 421 kts | 287° |
| 2026-05-04 02:47 | 35.37218 | -81.77377 | 22250 ft | 423 kts | 287° |
| 2026-05-04 02:47 | 35.38117 | -81.80814 | 22763 ft | 425 kts | 287° |
| 2026-05-04 02:47 | 35.39018 | -81.84268 | 23248 ft | 427 kts | 287° |
| 2026-05-04 02:47 | 35.39927 | -81.87753 | 23708 ft | 430 kts | 286° |
| 2026-05-04 02:48 | 35.40838 | -81.91251 | 24090 ft | 432 kts | 286° |
| 2026-05-04 02:48 | 35.41752 | -81.94766 | 24465 ft | 434 kts | 286° |
| 2026-05-04 02:48 | 35.42671 | -81.98304 | 24852 ft | 436 kts | 286° |
| 2026-05-04 02:48 | 35.43593 | -82.01860 | 25229 ft | 438 kts | 286° |
| 2026-05-04 02:49 | 35.44518 | -82.05431 | 25589 ft | 440 kts | 286° |
| 2026-05-04 02:49 | 35.45446 | -82.09021 | 25988 ft | 441 kts | 286° |
| 2026-05-04 02:49 | 35.46370 | -82.12596 | 26475 ft | 438 kts | 286° |
| 2026-05-04 02:49 | 35.47287 | -82.16150 | 27051 ft | 435 kts | 287° |
| 2026-05-04 02:50 | 35.48200 | -82.19690 | 27599 ft | 433 kts | 286° |
| 2026-05-04 02:50 | 35.49104 | -82.23207 | 28134 ft | 432 kts | 286° |
| 2026-05-04 02:50 | 35.50007 | -82.26722 | 28709 ft | 431 kts | 286° |
| 2026-05-04 02:50 | 35.50904 | -82.30222 | 29342 ft | 428 kts | 286° |
| 2026-05-04 02:51 | 35.51793 | -82.33689 | 29993 ft | 425 kts | 286° |
| 2026-05-04 02:51 | 35.52683 | -82.37170 | 30058 ft | 428 kts | 286° |
| 2026-05-04 02:51 | 35.54451 | -82.44097 | 30088 ft | 424 kts | 287° |
| 2026-05-04 02:52 | 35.56208 | -82.50997 | 30113 ft | 423 kts | 287° |
| 2026-05-04 02:52 | 35.57960 | -82.57897 | 30115 ft | 423 kts | 286° |
| 2026-05-04 02:53 | 35.59709 | -82.64802 | 30112 ft | 423 kts | 286° |
| 2026-05-04 02:53 | 35.61456 | -82.71717 | 30115 ft | 424 kts | 286° |
| 2026-05-04 02:54 | 35.63191 | -82.78604 | 30118 ft | 424 kts | 287° |
| 2026-05-04 02:54 | 35.64927 | -82.85518 | 30104 ft | 422 kts | 287° |
| 2026-05-04 02:55 | 35.67518 | -82.95863 | 30103 ft | 422 kts | 287° |
| 2026-05-04 02:56 | 35.69236 | -83.02749 | 30100 ft | 421 kts | 287° |
| 2026-05-04 02:56 | 35.70953 | -83.09649 | 30099 ft | 421 kts | 287° |
| 2026-05-04 02:57 | 35.72664 | -83.16544 | 30095 ft | 421 kts | 287° |
| 2026-05-04 02:57 | 35.74357 | -83.23387 | 30091 ft | 421 kts | 287° |
| 2026-05-04 02:58 | 35.76059 | -83.30280 | 30096 ft | 421 kts | 287° |
| 2026-05-04 02:58 | 35.77761 | -83.37193 | 30088 ft | 421 kts | 287° |
| 2026-05-04 02:59 | 35.79457 | -83.44102 | 30105 ft | 421 kts | 287° |
| 2026-05-04 02:59 | 35.81148 | -83.51009 | 30117 ft | 421 kts | 287° |
| 2026-05-04 03:00 | 35.82835 | -83.57921 | 30102 ft | 420 kts | 287° |
| 2026-05-04 03:00 | 35.84512 | -83.64809 | 30107 ft | 419 kts | 287° |
| 2026-05-04 03:01 | 35.85901 | -83.70534 | 30104 ft | 419 kts | 287° |
| 2026-05-04 03:01 | 35.87839 | -83.78534 | 30100 ft | 419 kts | 287° |
| 2026-05-04 03:02 | 35.89232 | -83.84302 | 30103 ft | 419 kts | 287° |
| 2026-05-04 03:02 | 35.90174 | -83.91365 | 30103 ft | 423 kts | 269° |
| 2026-05-04 03:03 | 35.89139 | -83.98497 | 30099 ft | 426 kts | 262° |
| 2026-05-04 03:03 | 35.87891 | -84.05638 | 30091 ft | 426 kts | 262° |
| 2026-05-04 03:04 | 35.86669 | -84.12780 | 30096 ft | 426 kts | 262° |
| 2026-05-04 03:04 | 35.85475 | -84.19928 | 30090 ft | 426 kts | 262° |
| 2026-05-04 03:05 | 35.84287 | -84.27087 | 30094 ft | 426 kts | 262° |
| 2026-05-04 03:05 | 35.83097 | -84.34239 | 30090 ft | 427 kts | 262° |
| 2026-05-04 03:06 | 35.81899 | -84.41408 | 30098 ft | 427 kts | 262° |
| 2026-05-04 03:06 | 35.80696 | -84.48578 | 30098 ft | 426 kts | 262° |
| 2026-05-04 03:07 | 35.79498 | -84.55684 | 30099 ft | 426 kts | 262° |
| 2026-05-04 03:07 | 35.78289 | -84.62832 | 30104 ft | 426 kts | 262° |
| 2026-05-04 03:08 | 35.77076 | -84.69977 | 30095 ft | 426 kts | 262° |
| 2026-05-04 03:08 | 35.75858 | -84.77126 | 29744 ft | 430 kts | 262° |
| 2026-05-04 03:08 | 35.75241 | -84.80746 | 28879 ft | 428 kts | 262° |
| 2026-05-04 03:09 | 35.74631 | -84.84297 | 27970 ft | 420 kts | 262° |
| 2026-05-04 03:09 | 35.74031 | -84.87781 | 27005 ft | 414 kts | 262° |
| 2026-05-04 03:09 | 35.73437 | -84.91233 | 26030 ft | 411 kts | 261° |
| 2026-05-04 03:09 | 35.72850 | -84.94640 | 25361 ft | 403 kts | 261° |
| 2026-05-04 03:10 | 35.72267 | -84.98023 | 24686 ft | 405 kts | 261° |
| 2026-05-04 03:10 | 35.71673 | -85.01486 | 23989 ft | 424 kts | 261° |
| 2026-05-04 03:10 | 35.71059 | -85.05049 | 23162 ft | 423 kts | 261° |
| 2026-05-04 03:10 | 35.70450 | -85.08542 | 22380 ft | 411 kts | 261° |
| 2026-05-04 03:11 | 35.69867 | -85.11887 | 21685 ft | 399 kts | 261° |
| 2026-05-04 03:11 | 35.69293 | -85.15185 | 21003 ft | 389 kts | 261° |
| 2026-05-04 03:11 | 35.68730 | -85.18411 | 20341 ft | 383 kts | 261° |
| 2026-05-04 03:11 | 35.68169 | -85.21605 | 19990 ft | 381 kts | 260° |
| 2026-05-04 03:12 | 35.67577 | -85.24879 | 19768 ft | 403 kts | 260° |
| 2026-05-04 03:12 | 35.66953 | -85.28288 | 19558 ft | 412 kts | 259° |
| 2026-05-04 03:12 | 35.66320 | -85.31715 | 19296 ft | 409 kts | 259° |
| 2026-05-04 03:12 | 35.65687 | -85.35135 | 19051 ft | 412 kts | 259° |
| 2026-05-04 03:13 | 35.65051 | -85.38571 | 18819 ft | 413 kts | 259° |
| 2026-05-04 03:13 | 35.64414 | -85.42015 | 18591 ft | 413 kts | 259° |
| 2026-05-04 03:13 | 35.63777 | -85.45462 | 18346 ft | 412 kts | 259° |
| 2026-05-04 03:13 | 35.63140 | -85.48899 | 18082 ft | 411 kts | 259° |
| 2026-05-04 03:14 | 35.62506 | -85.52316 | 17838 ft | 408 kts | 259° |
| 2026-05-04 03:14 | 35.61877 | -85.55705 | 17597 ft | 406 kts | 259° |
| 2026-05-04 03:14 | 35.61248 | -85.59089 | 17365 ft | 405 kts | 259° |
| 2026-05-04 03:14 | 35.60623 | -85.62449 | 17135 ft | 403 kts | 259° |
| 2026-05-04 03:15 | 35.59996 | -85.65808 | 16903 ft | 402 kts | 259° |
| 2026-05-04 03:15 | 35.59380 | -85.69108 | 16679 ft | 402 kts | 259° |
| 2026-05-04 03:15 | 35.58755 | -85.72453 | 16445 ft | 401 kts | 259° |
| 2026-05-04 03:15 | 35.58130 | -85.75790 | 16218 ft | 400 kts | 260° |
| 2026-05-04 03:16 | 35.57507 | -85.79110 | 15879 ft | 393 kts | 260° |
| 2026-05-04 03:16 | 35.56905 | -85.82300 | 15643 ft | 373 kts | 260° |
| 2026-05-04 03:16 | 35.56333 | -85.85323 | 15421 ft | 355 kts | 260° |
| 2026-05-04 03:16 | 35.55906 | -85.88219 | 15206 ft | 336 kts | 271° |
| 2026-05-04 03:17 | 35.56242 | -85.90969 | 15038 ft | 319 kts | 289° |
| 2026-05-04 03:17 | 35.57138 | -85.93422 | 14854 ft | 316 kts | 303° |
| 2026-05-04 03:17 | 35.58510 | -85.95547 | 14704 ft | 320 kts | 312° |
| 2026-05-04 03:17 | 35.60038 | -85.97562 | 14511 ft | 322 kts | 314° |
| 2026-05-04 03:18 | 35.61574 | -85.99551 | 14328 ft | 320 kts | 314° |
| 2026-05-04 03:18 | 35.63093 | -86.01546 | 14143 ft | 318 kts | 313° |
| 2026-05-04 03:18 | 35.64590 | -86.03537 | 13962 ft | 317 kts | 313° |
| 2026-05-04 03:18 | 35.66079 | -86.05529 | 13770 ft | 316 kts | 313° |
| 2026-05-04 03:19 | 35.67562 | -86.07518 | 13573 ft | 315 kts | 313° |
| 2026-05-04 03:19 | 35.69042 | -86.09503 | 13386 ft | 315 kts | 313° |
| 2026-05-04 03:19 | 35.70513 | -86.11477 | 13217 ft | 312 kts | 313° |
| 2026-05-04 03:19 | 35.71920 | -86.13504 | 13025 ft | 310 kts | 308° |
| 2026-05-04 03:20 | 35.73206 | -86.15621 | 12851 ft | 308 kts | 307° |
| 2026-05-04 03:20 | 35.74462 | -86.17751 | 12672 ft | 307 kts | 306° |
| 2026-05-04 03:20 | 35.75700 | -86.19852 | 12495 ft | 307 kts | 307° |
| 2026-05-04 03:20 | 35.76958 | -86.21980 | 12324 ft | 307 kts | 307° |
| 2026-05-04 03:21 | 35.78220 | -86.24105 | 12166 ft | 308 kts | 307° |
| 2026-05-04 03:21 | 35.79486 | -86.26231 | 11960 ft | 308 kts | 307° |
| 2026-05-04 03:21 | 35.80757 | -86.28359 | 11789 ft | 308 kts | 307° |
| 2026-05-04 03:21 | 35.82028 | -86.30486 | 11617 ft | 308 kts | 307° |
| 2026-05-04 03:22 | 35.83298 | -86.32611 | 11440 ft | 308 kts | 307° |
| 2026-05-04 03:22 | 35.84568 | -86.34735 | 11263 ft | 308 kts | 307° |
| 2026-05-04 03:22 | 35.85836 | -86.36858 | 11089 ft | 307 kts | 307° |
| 2026-05-04 03:22 | 35.87100 | -86.38974 | 10891 ft | 306 kts | 307° |
| 2026-05-04 03:23 | 35.88361 | -86.41087 | 10721 ft | 306 kts | 307° |
| 2026-05-04 03:23 | 35.89621 | -86.43200 | 10543 ft | 306 kts | 307° |
| 2026-05-04 03:23 | 35.90876 | -86.45303 | 10372 ft | 301 kts | 307° |
| 2026-05-04 03:23 | 35.92088 | -86.47338 | 10191 ft | 288 kts | 307° |
| 2026-05-04 03:24 | 35.93253 | -86.49295 | 10052 ft | 278 kts | 307° |
| 2026-05-04 03:24 | 35.94376 | -86.51181 | 9930 ft | 267 kts | 307° |
| 2026-05-04 03:24 | 35.95450 | -86.52987 | 9724 ft | 259 kts | 307° |
| 2026-05-04 03:24 | 35.96506 | -86.54762 | 9518 ft | 253 kts | 307° |
| 2026-05-04 03:25 | 35.97544 | -86.56509 | 9325 ft | 252 kts | 306° |
| 2026-05-04 03:25 | 35.98605 | -86.58216 | 9122 ft | 248 kts | 314° |
| 2026-05-04 03:25 | 36.00031 | -86.59308 | 8950 ft | 247 kts | 340° |
| 2026-05-04 03:25 | 36.01755 | -86.59604 | 8786 ft | 251 kts | 360° |
| 2026-05-04 03:26 | 36.03456 | -86.59165 | 8630 ft | 256 kts | 13° |
| 2026-05-04 03:26 | 36.05159 | -86.58472 | 8457 ft | 259 kts | 14° |
| 2026-05-04 03:26 | 36.06872 | -86.57755 | 8156 ft | 261 kts | 14° |
| 2026-05-04 03:26 | 36.08616 | -86.57037 | 7545 ft | 266 kts | 14° |
| 2026-05-04 03:27 | 36.10383 | -86.56321 | 6958 ft | 268 kts | 13° |
| 2026-05-04 03:27 | 36.12187 | -86.55714 | 6386 ft | 269 kts | 10° |
| 2026-05-04 03:27 | 36.14016 | -86.55175 | 5788 ft | 271 kts | 9° |
| 2026-05-04 03:27 | 36.15862 | -86.54656 | 5192 ft | 272 kts | 8° |
| 2026-05-04 03:28 | 36.17712 | -86.54143 | 4605 ft | 273 kts | 9° |
| 2026-05-04 03:28 | 36.19561 | -86.53599 | 4145 ft | 269 kts | 10° |
| 2026-05-04 03:28 | 36.21336 | -86.53072 | 3998 ft | 258 kts | 9° |
| 2026-05-04 03:28 | 36.23083 | -86.52581 | 3879 ft | 260 kts | 8° |
| 2026-05-04 03:29 | 36.24865 | -86.52081 | 3576 ft | 263 kts | 9° |
| 2026-05-04 03:29 | 36.26638 | -86.51548 | 3279 ft | 260 kts | 7° |
| 2026-05-04 03:29 | 36.28385 | -86.51630 | 2996 ft | 247 kts | 335° |
| 2026-05-04 03:29 | 36.29771 | -86.52763 | 2954 ft | 235 kts | 304° |
| 2026-05-04 03:30 | 36.30424 | -86.54529 | 2951 ft | 222 kts | 274° |
| 2026-05-04 03:30 | 36.30481 | -86.56370 | 2943 ft | 204 kts | 266° |
| 2026-05-04 03:30 | 36.30220 | -86.57962 | 2942 ft | 177 kts | 242° |
| 2026-05-04 03:30 | 36.29458 | -86.59021 | 2927 ft | 158 kts | 213° |
| 2026-05-04 03:31 | 36.28426 | -86.59337 | 2926 ft | 155 kts | 182° |
| 2026-05-04 03:31 | 36.27365 | -86.59188 | 2915 ft | 150 kts | 198° |
| 2026-05-04 03:31 | 36.26445 | -86.59722 | 2942 ft | 149 kts | 208° |
| 2026-05-04 03:31 | 36.25490 | -86.60198 | 2947 ft | 149 kts | 205° |
| 2026-05-04 03:32 | 36.24546 | -86.60689 | 2949 ft | 146 kts | 208° |
| 2026-05-04 03:32 | 36.23633 | -86.61220 | 2947 ft | 147 kts | 208° |
| 2026-05-04 03:32 | 36.22701 | -86.61760 | 2953 ft | 148 kts | 209° |
| 2026-05-04 03:32 | 36.21761 | -86.62303 | 2953 ft | 150 kts | 208° |
| 2026-05-04 03:33 | 36.20815 | -86.62848 | 2807 ft | 148 kts | 208° |
| 2026-05-04 03:33 | 36.19869 | -86.63343 | 2365 ft | 148 kts | 202° |
| 2026-05-04 03:33 | 36.18893 | -86.63732 | 1960 ft | 147 kts | 201° |
| 2026-05-04 03:33 | 36.17917 | -86.64117 | 1499 ft | 150 kts | 200° |
| 2026-05-04 03:34 | 36.16908 | -86.64518 | 1402 ft | 153 kts | 199° |
| 2026-05-04 03:34 | 36.15857 | -86.64942 | 1236 ft | 167 kts | 200° |
| 2026-05-04 03:34 | 36.14751 | -86.65394 | 911 ft | 165 kts | 197° |
| 2026-05-04 03:34 | 36.13672 | -86.65809 | 667 ft | 159 kts | 196° |
| 2026-05-04 03:35 | 36.12642 | -86.66216 | 575 ft | 154 kts | 197° |
| 2026-05-04 03:35 | 36.11797 | -86.66553 | 592 ft | 57 kts | 199° |
| 2026-05-04 03:35 | 36.11652 | -86.66662 | 599 ft | 17 kts | 255° |
| 2026-05-04 03:35 | 36.11706 | -86.66733 | 594 ft | 11 kts | 10° |
| 2026-05-04 03:36 | 36.11792 | -86.66701 | 589 ft | 16 kts | 17° |